Utica, Kentucky
Current Conditions -  °F | °C
As of 7:56 AM on Monday 22 Dec 2014 (Local Time) from KOWB Reporting Station
Overcast Overcast  
Wind Chill: 40°   Ceiling: 2200
Heat Index: 44°   Visibility: 10mi
Dew Point: 38°   Wind: 7mph
Humidity: 80%   Direction: 140°SE
Pressure: 29.92"   Gusts: NA
Location:  37.6°N, 86.98°W
Report Text: KOWB 221356Z 14006KT 10SM OVC022 07/03 A2992 RMK AO2 T00660033 SLP135
Loading
Personal Weather Stations






























Interactive Weather Map New forecast layout! Learn more

10-Day Weather Forecast

Advertisements
Track Severe Weather on mobile